sensor_id;sensor_type;location;lat;lon;timestamp;P1;durP1;ratioP1;P2;durP2;ratioP2
1925;SDS011;964;42.606;23.588;2022-07-06T00:00:20;16.00;;;13.33;;
1925;SDS011;964;42.606;23.588;2022-07-06T00:02:47;15.03;;;12.80;;
1925;SDS011;964;42.606;23.588;2022-07-06T00:05:13;13.90;;;12.50;;
1925;SDS011;964;42.606;23.588;2022-07-06T00:07:40;13.50;;;11.87;;
1925;SDS011;964;42.606;23.588;2022-07-06T00:10:07;14.57;;;13.07;;
1925;SDS011;964;42.606;23.588;2022-07-06T00:12:34;17.00;;;12.40;;
1925;SDS011;964;42.606;23.588;2022-07-06T00:15:04;15.97;;;12.77;;
1925;SDS011;964;42.606;23.588;2022-07-06T00:17:31;14.93;;;13.43;;
1925;SDS011;964;42.606;23.588;2022-07-06T00:19:58;14.53;;;11.43;;
1925;SDS011;964;42.606;23.588;2022-07-06T00:22:25;12.30;;;11.00;;
1925;SDS011;964;42.606;23.588;2022-07-06T00:24:51;14.00;;;10.90;;
1925;SDS011;964;42.606;23.588;2022-07-06T00:27:18;13.03;;;11.40;;
1925;SDS011;964;42.606;23.588;2022-07-06T00:29:45;12.30;;;11.10;;
1925;SDS011;964;42.606;23.588;2022-07-06T00:32:13;14.70;;;11.07;;
1925;SDS011;964;42.606;23.588;2022-07-06T00:34:40;11.43;;;10.30;;
1925;SDS011;964;42.606;23.588;2022-07-06T00:37:06;14.07;;;11.00;;
1925;SDS011;964;42.606;23.588;2022-07-06T00:39:33;13.87;;;10.87;;
1925;SDS011;964;42.606;23.588;2022-07-06T00:42:00;12.47;;;11.20;;
1925;SDS011;964;42.606;23.588;2022-07-06T00:44:27;13.80;;;10.50;;
1925;SDS011;964;42.606;23.588;2022-07-06T00:46:54;15.10;;;10.47;;
1925;SDS011;964;42.606;23.588;2022-07-06T00:49:22;14.30;;;9.97;;
1925;SDS011;964;42.606;23.588;2022-07-06T00:52:06;14.03;;;10.20;;
1925;SDS011;964;42.606;23.588;2022-07-06T00:54:33;15.90;;;12.30;;
1925;SDS011;964;42.606;23.588;2022-07-06T00:57:02;15.07;;;11.30;;
1925;SDS011;964;42.606;23.588;2022-07-06T00:59:29;13.23;;;11.30;;
1925;SDS011;964;42.606;23.588;2022-07-06T01:01:57;13.10;;;10.30;;
1925;SDS011;964;42.606;23.588;2022-07-06T01:04:25;13.27;;;11.87;;
1925;SDS011;964;42.606;23.588;2022-07-06T01:06:53;12.90;;;11.27;;
1925;SDS011;964;42.606;23.588;2022-07-06T01:09:20;14.47;;;10.90;;
1925;SDS011;964;42.606;23.588;2022-07-06T01:11:47;13.97;;;11.40;;
1925;SDS011;964;42.606;23.588;2022-07-06T01:14:14;13.63;;;11.53;;
1925;SDS011;964;42.606;23.588;2022-07-06T01:16:41;14.43;;;11.57;;
1925;SDS011;964;42.606;23.588;2022-07-06T01:19:07;13.90;;;12.17;;
1925;SDS011;964;42.606;23.588;2022-07-06T01:21:37;15.40;;;13.73;;
1925;SDS011;964;42.606;23.588;2022-07-06T01:24:04;14.27;;;12.10;;
1925;SDS011;964;42.606;23.588;2022-07-06T01:26:31;14.40;;;12.90;;
1925;SDS011;964;42.606;23.588;2022-07-06T01:28:58;16.30;;;12.10;;
1925;SDS011;964;42.606;23.588;2022-07-06T01:31:25;15.17;;;13.57;;
1925;SDS011;964;42.606;23.588;2022-07-06T01:33:53;22.10;;;13.97;;
1925;SDS011;964;42.606;23.588;2022-07-06T01:36:21;15.33;;;13.30;;
1925;SDS011;964;42.606;23.588;2022-07-06T01:38:50;14.23;;;12.33;;
1925;SDS011;964;42.606;23.588;2022-07-06T01:41:17;15.93;;;13.47;;
1925;SDS011;964;42.606;23.588;2022-07-06T01:43:45;19.40;;;14.43;;
1925;SDS011;964;42.606;23.588;2022-07-06T01:46:12;17.87;;;14.73;;
1925;SDS011;964;42.606;23.588;2022-07-06T01:48:39;18.67;;;14.57;;
1925;SDS011;964;42.606;23.588;2022-07-06T01:51:06;17.30;;;13.73;;
1925;SDS011;964;42.606;23.588;2022-07-06T01:53:33;15.97;;;13.30;;
1925;SDS011;964;42.606;23.588;2022-07-06T01:56:01;19.60;;;14.27;;
1925;SDS011;964;42.606;23.588;2022-07-06T01:58:28;18.13;;;14.20;;
1925;SDS011;964;42.606;23.588;2022-07-06T02:00:55;14.73;;;13.10;;
1925;SDS011;964;42.606;23.588;2022-07-06T02:03:22;15.40;;;12.87;;
1925;SDS011;964;42.606;23.588;2022-07-06T02:05:49;19.63;;;13.83;;
1925;SDS011;964;42.606;23.588;2022-07-06T02:08:16;16.13;;;13.13;;
1925;SDS011;964;42.606;23.588;2022-07-06T02:10:42;15.47;;;13.03;;
1925;SDS011;964;42.606;23.588;2022-07-06T02:13:11;19.00;;;13.70;;
1925;SDS011;964;42.606;23.588;2022-07-06T02:15:37;16.80;;;13.40;;
1925;SDS011;964;42.606;23.588;2022-07-06T02:18:04;19.00;;;12.87;;
1925;SDS011;964;42.606;23.588;2022-07-06T02:20:31;18.73;;;15.00;;
1925;SDS011;964;42.606;23.588;2022-07-06T02:22:58;16.03;;;13.50;;
1925;SDS011;964;42.606;23.588;2022-07-06T02:25:24;14.90;;;13.40;;
1925;SDS011;964;42.606;23.588;2022-07-06T02:27:51;17.27;;;13.67;;
1925;SDS011;964;42.606;23.588;2022-07-06T02:30:19;16.00;;;14.13;;
1925;SDS011;964;42.606;23.588;2022-07-06T02:32:46;15.47;;;12.73;;
1925;SDS011;964;42.606;23.588;2022-07-06T02:35:13;16.83;;;14.70;;
1925;SDS011;964;42.606;23.588;2022-07-06T02:37:39;16.63;;;13.57;;
1925;SDS011;964;42.606;23.588;2022-07-06T02:40:07;18.97;;;15.00;;
1925;SDS011;964;42.606;23.588;2022-07-06T02:42:34;17.57;;;15.17;;
1925;SDS011;964;42.606;23.588;2022-07-06T02:45:02;15.80;;;14.20;;
1925;SDS011;964;42.606;23.588;2022-07-06T02:47:31;15.80;;;14.10;;
1925;SDS011;964;42.606;23.588;2022-07-06T02:49:57;17.53;;;14.00;;
1925;SDS011;964;42.606;23.588;2022-07-06T02:52:24;15.70;;;14.00;;
1925;SDS011;964;42.606;23.588;2022-07-06T02:54:51;16.13;;;14.33;;
1925;SDS011;964;42.606;23.588;2022-07-06T02:57:18;16.20;;;13.90;;
1925;SDS011;964;42.606;23.588;2022-07-06T02:59:45;15.87;;;14.17;;
1925;SDS011;964;42.606;23.588;2022-07-06T03:02:14;17.13;;;13.63;;
1925;SDS011;964;42.606;23.588;2022-07-06T03:04:42;17.10;;;14.40;;
1925;SDS011;964;42.606;23.588;2022-07-06T03:07:09;16.17;;;13.47;;
1925;SDS011;964;42.606;23.588;2022-07-06T03:09:36;16.27;;;14.57;;
1925;SDS011;964;42.606;23.588;2022-07-06T03:12:03;19.13;;;14.77;;
1925;SDS011;964;42.606;23.588;2022-07-06T03:14:30;19.87;;;14.43;;
1925;SDS011;964;42.606;23.588;2022-07-06T03:16:57;21.13;;;13.77;;
1925;SDS011;964;42.606;23.588;2022-07-06T03:19:23;17.47;;;14.20;;
1925;SDS011;964;42.606;23.588;2022-07-06T03:21:51;17.53;;;15.37;;
1925;SDS011;964;42.606;23.588;2022-07-06T03:24:18;17.80;;;14.73;;
1925;SDS011;964;42.606;23.588;2022-07-06T03:26:45;15.70;;;12.60;;
1925;SDS011;964;42.606;23.588;2022-07-06T03:29:12;16.73;;;13.27;;
1925;SDS011;964;42.606;23.588;2022-07-06T03:31:39;14.87;;;12.83;;
1925;SDS011;964;42.606;23.588;2022-07-06T03:34:05;15.50;;;12.97;;
1925;SDS011;964;42.606;23.588;2022-07-06T03:36:32;14.23;;;12.37;;
1925;SDS011;964;42.606;23.588;2022-07-06T03:39:00;14.87;;;12.63;;
1925;SDS011;964;42.606;23.588;2022-07-06T03:41:27;16.40;;;12.97;;
1925;SDS011;964;42.606;23.588;2022-07-06T03:43:54;13.43;;;10.53;;
1925;SDS011;964;42.606;23.588;2022-07-06T03:46:21;14.23;;;12.27;;
1925;SDS011;964;42.606;23.588;2022-07-06T03:48:47;15.00;;;10.60;;
1925;SDS011;964;42.606;23.588;2022-07-06T03:51:14;14.90;;;11.80;;
1925;SDS011;964;42.606;23.588;2022-07-06T03:53:41;13.30;;;11.07;;
1925;SDS011;964;42.606;23.588;2022-07-06T03:56:09;13.73;;;11.60;;
1925;SDS011;964;42.606;23.588;2022-07-06T03:58:54;13.27;;;11.87;;
1925;SDS011;964;42.606;23.588;2022-07-06T04:01:21;17.20;;;14.30;;
1925;SDS011;964;42.606;23.588;2022-07-06T04:03:47;22.00;;;15.43;;
1925;SDS011;964;42.606;23.588;2022-07-06T04:06:14;22.47;;;16.20;;
1925;SDS011;964;42.606;23.588;2022-07-06T04:08:41;25.43;;;17.17;;
1925;SDS011;964;42.606;23.588;2022-07-06T04:11:09;26.60;;;16.50;;
1925;SDS011;964;42.606;23.588;2022-07-06T04:13:36;29.10;;;18.70;;
1925;SDS011;964;42.606;23.588;2022-07-06T04:16:04;27.90;;;17.07;;
1925;SDS011;964;42.606;23.588;2022-07-06T04:18:31;26.63;;;17.43;;
1925;SDS011;964;42.606;23.588;2022-07-06T04:20:58;23.43;;;17.10;;
1925;SDS011;964;42.606;23.588;2022-07-06T04:23:24;30.40;;;17.10;;
1925;SDS011;964;42.606;23.588;2022-07-06T04:25:51;22.80;;;15.63;;
1925;SDS011;964;42.606;23.588;2022-07-06T04:28:19;23.67;;;15.70;;
1925;SDS011;964;42.606;23.588;2022-07-06T04:30:46;24.03;;;16.90;;
1925;SDS011;964;42.606;23.588;2022-07-06T04:33:13;22.07;;;16.03;;
1925;SDS011;964;42.606;23.588;2022-07-06T04:35:40;26.93;;;17.97;;
1925;SDS011;964;42.606;23.588;2022-07-06T04:38:06;36.60;;;15.17;;
1925;SDS011;964;42.606;23.588;2022-07-06T04:40:33;25.53;;;15.23;;
1925;SDS011;964;42.606;23.588;2022-07-06T04:43:00;21.43;;;15.87;;
1925;SDS011;964;42.606;23.588;2022-07-06T04:58:03;24.20;;;17.90;;
1925;SDS011;964;42.606;23.588;2022-07-06T05:00:30;26.90;;;17.00;;
1925;SDS011;964;42.606;23.588;2022-07-06T05:02:57;27.50;;;14.67;;
1925;SDS011;964;42.606;23.588;2022-07-06T05:05:23;23.43;;;15.73;;
1925;SDS011;964;42.606;23.588;2022-07-06T05:07:50;22.40;;;15.87;;
1925;SDS011;964;42.606;23.588;2022-07-06T05:10:17;22.17;;;14.87;;
1925;SDS011;964;42.606;23.588;2022-07-06T05:12:43;26.43;;;16.57;;
1925;SDS011;964;42.606;23.588;2022-07-06T05:15:12;21.60;;;15.70;;
1925;SDS011;964;42.606;23.588;2022-07-06T05:17:38;25.57;;;16.03;;
1925;SDS011;964;42.606;23.588;2022-07-06T05:20:05;17.67;;;14.00;;
1925;SDS011;964;42.606;23.588;2022-07-06T05:22:33;19.80;;;15.40;;
1925;SDS011;964;42.606;23.588;2022-07-06T05:25:00;28.93;;;15.40;;
1925;SDS011;964;42.606;23.588;2022-07-06T05:27:27;16.60;;;13.97;;
1925;SDS011;964;42.606;23.588;2022-07-06T05:29:53;22.10;;;12.50;;
1925;SDS011;964;42.606;23.588;2022-07-06T05:32:21;13.57;;;11.93;;
1925;SDS011;964;42.606;23.588;2022-07-06T05:34:49;16.70;;;12.93;;
1925;SDS011;964;42.606;23.588;2022-07-06T05:37:16;15.27;;;12.23;;
1925;SDS011;964;42.606;23.588;2022-07-06T05:39:43;16.00;;;12.03;;
1925;SDS011;964;42.606;23.588;2022-07-06T05:42:12;23.17;;;12.40;;
1925;SDS011;964;42.606;23.588;2022-07-06T05:44:38;14.67;;;11.33;;
1925;SDS011;964;42.606;23.588;2022-07-06T05:47:05;12.50;;;10.73;;
1925;SDS011;964;42.606;23.588;2022-07-06T05:49:51;14.13;;;11.40;;
1925;SDS011;964;42.606;23.588;2022-07-06T05:52:35;16.07;;;10.90;;
1925;SDS011;964;42.606;23.588;2022-07-06T05:55:02;12.90;;;11.30;;
1925;SDS011;964;42.606;23.588;2022-07-06T05:57:29;12.40;;;10.03;;
1925;SDS011;964;42.606;23.588;2022-07-06T05:59:56;15.23;;;10.50;;
1925;SDS011;964;42.606;23.588;2022-07-06T06:02:22;16.07;;;11.00;;
1925;SDS011;964;42.606;23.588;2022-07-06T06:04:51;15.43;;;9.80;;
1925;SDS011;964;42.606;23.588;2022-07-06T06:07:17;15.67;;;11.47;;
1925;SDS011;964;42.606;23.588;2022-07-06T06:09:44;23.10;;;12.30;;
1925;SDS011;964;42.606;23.588;2022-07-06T06:12:11;20.53;;;11.40;;
1925;SDS011;964;42.606;23.588;2022-07-06T06:14:37;14.40;;;11.40;;
1925;SDS011;964;42.606;23.588;2022-07-06T06:17:04;16.60;;;10.87;;
1925;SDS011;964;42.606;23.588;2022-07-06T06:19:34;17.60;;;11.20;;
1925;SDS011;964;42.606;23.588;2022-07-06T06:22:03;12.53;;;10.03;;
1925;SDS011;964;42.606;23.588;2022-07-06T06:24:30;17.53;;;10.70;;
1925;SDS011;964;42.606;23.588;2022-07-06T06:26:57;14.40;;;10.23;;
1925;SDS011;964;42.606;23.588;2022-07-06T06:29:24;13.77;;;10.37;;
1925;SDS011;964;42.606;23.588;2022-07-06T06:31:51;13.40;;;10.10;;
1925;SDS011;964;42.606;23.588;2022-07-06T06:34:18;14.70;;;10.40;;
1925;SDS011;964;42.606;23.588;2022-07-06T06:36:44;19.70;;;11.20;;
1925;SDS011;964;42.606;23.588;2022-07-06T06:39:12;13.30;;;10.30;;
1925;SDS011;964;42.606;23.588;2022-07-06T06:41:39;14.50;;;10.73;;
1925;SDS011;964;42.606;23.588;2022-07-06T06:44:06;16.37;;;11.80;;
1925;SDS011;964;42.606;23.588;2022-07-06T06:46:32;16.97;;;11.13;;
1925;SDS011;964;42.606;23.588;2022-07-06T06:48:59;13.83;;;10.87;;
1925;SDS011;964;42.606;23.588;2022-07-06T06:51:26;14.20;;;10.93;;
1925;SDS011;964;42.606;23.588;2022-07-06T06:53:53;13.37;;;10.90;;
1925;SDS011;964;42.606;23.588;2022-07-06T06:56:21;15.30;;;10.40;;
1925;SDS011;964;42.606;23.588;2022-07-06T06:58:47;14.07;;;10.57;;
1925;SDS011;964;42.606;23.588;2022-07-06T07:01:14;15.57;;;10.07;;
1925;SDS011;964;42.606;23.588;2022-07-06T07:03:40;14.17;;;10.60;;
1925;SDS011;964;42.606;23.588;2022-07-06T07:06:07;15.20;;;10.50;;
1925;SDS011;964;42.606;23.588;2022-07-06T07:08:34;14.80;;;10.60;;
1925;SDS011;964;42.606;23.588;2022-07-06T07:11:01;15.07;;;11.60;;
1925;SDS011;964;42.606;23.588;2022-07-06T07:13:29;16.07;;;10.60;;
1925;SDS011;964;42.606;23.588;2022-07-06T07:15:55;15.93;;;10.50;;
1925;SDS011;964;42.606;23.588;2022-07-06T07:18:22;12.90;;;10.90;;
1925;SDS011;964;42.606;23.588;2022-07-06T07:20:49;12.70;;;10.57;;
1925;SDS011;964;42.606;23.588;2022-07-06T07:23:16;11.40;;;9.73;;
1925;SDS011;964;42.606;23.588;2022-07-06T07:25:42;12.60;;;9.10;;
1925;SDS011;964;42.606;23.588;2022-07-06T07:28:09;11.60;;;9.30;;
1925;SDS011;964;42.606;23.588;2022-07-06T07:30:38;15.53;;;10.63;;
1925;SDS011;964;42.606;23.588;2022-07-06T07:33:05;10.43;;;8.87;;
1925;SDS011;964;42.606;23.588;2022-07-06T07:35:32;14.10;;;10.47;;
1925;SDS011;964;42.606;23.588;2022-07-06T07:37:59;15.30;;;10.30;;
1925;SDS011;964;42.606;23.588;2022-07-06T07:40:25;14.93;;;10.30;;
1925;SDS011;964;42.606;23.588;2022-07-06T07:42:52;16.33;;;9.90;;
1925;SDS011;964;42.606;23.588;2022-07-06T07:45:19;13.00;;;10.33;;
1925;SDS011;964;42.606;23.588;2022-07-06T07:47:47;15.00;;;10.73;;
1925;SDS011;964;42.606;23.588;2022-07-06T07:50:14;10.80;;;8.90;;
1925;SDS011;964;42.606;23.588;2022-07-06T07:52:41;10.93;;;9.33;;
1925;SDS011;964;42.606;23.588;2022-07-06T07:55:08;11.00;;;9.33;;
1925;SDS011;964;42.606;23.588;2022-07-06T07:57:35;12.70;;;9.93;;
1925;SDS011;964;42.606;23.588;2022-07-06T08:00:02;12.70;;;9.40;;
1925;SDS011;964;42.606;23.588;2022-07-06T08:02:30;11.97;;;9.40;;
1925;SDS011;964;42.606;23.588;2022-07-06T08:04:58;13.23;;;9.80;;
1925;SDS011;964;42.606;23.588;2022-07-06T08:07:25;14.20;;;10.37;;
1925;SDS011;964;42.606;23.588;2022-07-06T08:09:52;13.20;;;10.17;;
1925;SDS011;964;42.606;23.588;2022-07-06T08:12:18;14.57;;;10.00;;
1925;SDS011;964;42.606;23.588;2022-07-06T08:14:45;12.37;;;10.50;;
1925;SDS011;964;42.606;23.588;2022-07-06T08:17:12;11.50;;;9.20;;
1925;SDS011;964;42.606;23.588;2022-07-06T08:19:38;11.17;;;8.67;;
1925;SDS011;964;42.606;23.588;2022-07-06T08:22:06;15.10;;;10.23;;
1925;SDS011;964;42.606;23.588;2022-07-06T08:24:34;11.10;;;8.63;;
1925;SDS011;964;42.606;23.588;2022-07-06T08:27:02;11.63;;;10.20;;
1925;SDS011;964;42.606;23.588;2022-07-06T08:29:29;11.50;;;10.00;;
1925;SDS011;964;42.606;23.588;2022-07-06T08:31:56;11.47;;;9.67;;
1925;SDS011;964;42.606;23.588;2022-07-06T08:34:22;11.70;;;9.37;;
1925;SDS011;964;42.606;23.588;2022-07-06T08:36:49;10.80;;;9.60;;
1925;SDS011;964;42.606;23.588;2022-07-06T08:39:17;11.53;;;10.07;;
1925;SDS011;964;42.606;23.588;2022-07-06T08:41:44;12.80;;;9.33;;
1925;SDS011;964;42.606;23.588;2022-07-06T08:44:16;14.43;;;9.80;;
1925;SDS011;964;42.606;23.588;2022-07-06T08:46:43;13.10;;;10.00;;
1925;SDS011;964;42.606;23.588;2022-07-06T08:49:12;11.57;;;9.30;;
1925;SDS011;964;42.606;23.588;2022-07-06T08:51:41;12.20;;;10.00;;
1925;SDS011;964;42.606;23.588;2022-07-06T08:54:08;11.97;;;9.17;;
1925;SDS011;964;42.606;23.588;2022-07-06T08:56:38;12.03;;;9.57;;
1925;SDS011;964;42.606;23.588;2022-07-06T08:59:06;10.57;;;8.90;;
1925;SDS011;964;42.606;23.588;2022-07-06T09:01:34;9.60;;;8.60;;
1925;SDS011;964;42.606;23.588;2022-07-06T09:04:02;11.43;;;8.50;;
1925;SDS011;964;42.606;23.588;2022-07-06T09:06:31;8.93;;;7.80;;
1925;SDS011;964;42.606;23.588;2022-07-06T09:08:59;9.97;;;8.67;;
1925;SDS011;964;42.606;23.588;2022-07-06T09:11:31;11.20;;;8.90;;
1925;SDS011;964;42.606;23.588;2022-07-06T09:13:59;12.13;;;9.73;;
1925;SDS011;964;42.606;23.588;2022-07-06T09:16:26;11.77;;;9.07;;
1925;SDS011;964;42.606;23.588;2022-07-06T09:18:55;9.40;;;8.40;;
1925;SDS011;964;42.606;23.588;2022-07-06T09:21:22;9.87;;;8.73;;
1925;SDS011;964;42.606;23.588;2022-07-06T09:23:52;9.97;;;8.97;;
1925;SDS011;964;42.606;23.588;2022-07-06T09:26:20;13.50;;;10.63;;
1925;SDS011;964;42.606;23.588;2022-07-06T09:28:48;11.23;;;8.80;;
1925;SDS011;964;42.606;23.588;2022-07-06T09:31:16;9.93;;;8.50;;
1925;SDS011;964;42.606;23.588;2022-07-06T09:33:56;9.87;;;8.10;;
1925;SDS011;964;42.606;23.588;2022-07-06T09:36:37;9.27;;;8.27;;
1925;SDS011;964;42.606;23.588;2022-07-06T09:39:16;9.93;;;7.87;;
1925;SDS011;964;42.606;23.588;2022-07-06T09:41:43;8.70;;;7.90;;
1925;SDS011;964;42.606;23.588;2022-07-06T09:44:10;10.83;;;8.13;;
1925;SDS011;964;42.606;23.588;2022-07-06T09:46:38;11.30;;;8.27;;
1925;SDS011;964;42.606;23.588;2022-07-06T09:49:07;9.03;;;8.13;;
1925;SDS011;964;42.606;23.588;2022-07-06T09:51:35;10.03;;;9.10;;
1925;SDS011;964;42.606;23.588;2022-07-06T09:54:03;9.63;;;8.73;;
1925;SDS011;964;42.606;23.588;2022-07-06T09:56:36;9.30;;;8.30;;
1925;SDS011;964;42.606;23.588;2022-07-06T09:59:05;9.17;;;8.27;;
1925;SDS011;964;42.606;23.588;2022-07-06T10:01:34;9.53;;;7.83;;
1925;SDS011;964;42.606;23.588;2022-07-06T10:04:03;8.77;;;7.87;;
1925;SDS011;964;42.606;23.588;2022-07-06T10:06:31;8.93;;;8.00;;
1925;SDS011;964;42.606;23.588;2022-07-06T10:08:58;9.27;;;8.33;;
1925;SDS011;964;42.606;23.588;2022-07-06T10:11:25;10.00;;;8.20;;
1925;SDS011;964;42.606;23.588;2022-07-06T10:13:54;10.80;;;8.30;;
1925;SDS011;964;42.606;23.588;2022-07-06T10:16:22;11.30;;;9.43;;
1925;SDS011;964;42.606;23.588;2022-07-06T10:18:49;13.60;;;9.97;;
1925;SDS011;964;42.606;23.588;2022-07-06T10:21:20;11.50;;;9.33;;
1925;SDS011;964;42.606;23.588;2022-07-06T10:23:48;9.70;;;8.70;;
1925;SDS011;964;42.606;23.588;2022-07-06T10:26:16;9.83;;;8.40;;
1925;SDS011;964;42.606;23.588;2022-07-06T10:28:43;10.43;;;8.50;;
1925;SDS011;964;42.606;23.588;2022-07-06T10:31:12;10.33;;;9.27;;
1925;SDS011;964;42.606;23.588;2022-07-06T10:33:41;12.43;;;8.63;;
1925;SDS011;964;42.606;23.588;2022-07-06T10:36:08;10.50;;;8.20;;
1925;SDS011;964;42.606;23.588;2022-07-06T10:38:37;9.53;;;8.33;;
1925;SDS011;964;42.606;23.588;2022-07-06T10:41:05;11.07;;;9.83;;
1925;SDS011;964;42.606;23.588;2022-07-06T10:43:33;10.40;;;9.30;;
1925;SDS011;964;42.606;23.588;2022-07-06T10:46:07;9.80;;;8.70;;
1925;SDS011;964;42.606;23.588;2022-07-06T10:48:35;12.07;;;10.30;;
1925;SDS011;964;42.606;23.588;2022-07-06T10:51:03;10.60;;;9.23;;
1925;SDS011;964;42.606;23.588;2022-07-06T10:53:31;13.63;;;10.13;;
1925;SDS011;964;42.606;23.588;2022-07-06T10:56:02;12.60;;;9.63;;
1925;SDS011;964;42.606;23.588;2022-07-06T10:58:34;11.37;;;9.47;;
1925;SDS011;964;42.606;23.588;2022-07-06T11:01:02;10.90;;;9.80;;
1925;SDS011;964;42.606;23.588;2022-07-06T11:03:35;11.00;;;9.80;;
1925;SDS011;964;42.606;23.588;2022-07-06T11:06:05;10.00;;;8.90;;
1925;SDS011;964;42.606;23.588;2022-07-06T11:08:52;11.80;;;9.00;;
1925;SDS011;964;42.606;23.588;2022-07-06T11:11:23;11.80;;;9.70;;
1925;SDS011;964;42.606;23.588;2022-07-06T11:13:52;10.40;;;9.07;;
1925;SDS011;964;42.606;23.588;2022-07-06T11:16:25;10.83;;;9.73;;
1925;SDS011;964;42.606;23.588;2022-07-06T11:19:00;12.93;;;10.03;;
1925;SDS011;964;42.606;23.588;2022-07-06T11:21:32;12.60;;;10.07;;
1925;SDS011;964;42.606;23.588;2022-07-06T11:24:01;11.90;;;9.77;;
1925;SDS011;964;42.606;23.588;2022-07-06T11:26:31;10.30;;;9.20;;
1925;SDS011;964;42.606;23.588;2022-07-06T11:29:01;11.17;;;9.73;;
1925;SDS011;964;42.606;23.588;2022-07-06T11:31:30;10.07;;;8.37;;
1925;SDS011;964;42.606;23.588;2022-07-06T11:33:56;9.97;;;8.90;;
1925;SDS011;964;42.606;23.588;2022-07-06T11:36:23;10.13;;;8.80;;
1925;SDS011;964;42.606;23.588;2022-07-06T11:38:50;12.17;;;9.60;;
1925;SDS011;964;42.606;23.588;2022-07-06T11:41:18;11.07;;;9.07;;
1925;SDS011;964;42.606;23.588;2022-07-06T11:43:46;9.07;;;8.13;;
1925;SDS011;964;42.606;23.588;2022-07-06T11:46:23;10.80;;;9.67;;
1925;SDS011;964;42.606;23.588;2022-07-06T11:48:54;14.10;;;10.37;;
1925;SDS011;964;42.606;23.588;2022-07-06T11:51:22;11.47;;;9.97;;
1925;SDS011;964;42.606;23.588;2022-07-06T11:53:51;11.60;;;10.40;;
1925;SDS011;964;42.606;23.588;2022-07-06T11:56:19;10.77;;;9.40;;
1925;SDS011;964;42.606;23.588;2022-07-06T11:58:52;9.50;;;8.60;;
1925;SDS011;964;42.606;23.588;2022-07-06T12:01:20;11.07;;;8.27;;
1925;SDS011;964;42.606;23.588;2022-07-06T12:03:47;12.97;;;8.70;;
1925;SDS011;964;42.606;23.588;2022-07-06T12:06:16;12.03;;;10.53;;
1925;SDS011;964;42.606;23.588;2022-07-06T12:08:44;12.13;;;10.80;;
1925;SDS011;964;42.606;23.588;2022-07-06T12:11:19;12.57;;;11.30;;
1925;SDS011;964;42.606;23.588;2022-07-06T12:13:48;11.90;;;10.70;;
1925;SDS011;964;42.606;23.588;2022-07-06T12:16:17;13.73;;;11.40;;
1925;SDS011;964;42.606;23.588;2022-07-06T12:18:45;13.90;;;11.70;;
1925;SDS011;964;42.606;23.588;2022-07-06T12:21:14;13.00;;;10.93;;
1925;SDS011;964;42.606;23.588;2022-07-06T12:23:43;11.73;;;10.53;;
1925;SDS011;964;42.606;23.588;2022-07-06T12:26:12;12.63;;;9.80;;
1925;SDS011;964;42.606;23.588;2022-07-06T12:28:40;12.23;;;10.90;;
1925;SDS011;964;42.606;23.588;2022-07-06T12:31:07;12.03;;;10.73;;
1925;SDS011;964;42.606;23.588;2022-07-06T12:33:36;17.50;;;11.27;;
1925;SDS011;964;42.606;23.588;2022-07-06T12:36:12;12.60;;;11.23;;
1925;SDS011;964;42.606;23.588;2022-07-06T12:38:44;11.30;;;10.00;;
1925;SDS011;964;42.606;23.588;2022-07-06T12:41:24;10.33;;;9.33;;
1925;SDS011;964;42.606;23.588;2022-07-06T12:44:01;12.90;;;9.70;;
1925;SDS011;964;42.606;23.588;2022-07-06T12:46:32;11.00;;;9.87;;
1925;SDS011;964;42.606;23.588;2022-07-06T12:49:03;12.10;;;10.83;;
1925;SDS011;964;42.606;23.588;2022-07-06T12:51:50;13.20;;;10.70;;
1925;SDS011;964;42.606;23.588;2022-07-06T12:54:27;10.97;;;9.17;;
1925;SDS011;964;42.606;23.588;2022-07-06T12:56:56;11.10;;;10.03;;
1925;SDS011;964;42.606;23.588;2022-07-06T12:59:27;11.20;;;10.10;;
1925;SDS011;964;42.606;23.588;2022-07-06T13:01:54;13.50;;;10.93;;
1925;SDS011;964;42.606;23.588;2022-07-06T13:04:23;13.93;;;9.90;;
1925;SDS011;964;42.606;23.588;2022-07-06T13:06:51;11.70;;;9.30;;
1925;SDS011;964;42.606;23.588;2022-07-06T13:09:18;10.30;;;9.20;;
1925;SDS011;964;42.606;23.588;2022-07-06T13:11:46;9.57;;;8.67;;
1925;SDS011;964;42.606;23.588;2022-07-06T13:14:13;11.40;;;9.17;;
1925;SDS011;964;42.606;23.588;2022-07-06T13:16:41;10.97;;;9.83;;
1925;SDS011;964;42.606;23.588;2022-07-06T13:19:09;9.63;;;8.63;;
1925;SDS011;964;42.606;23.588;2022-07-06T13:21:37;11.20;;;9.80;;
1925;SDS011;964;42.606;23.588;2022-07-06T13:24:04;10.90;;;9.10;;
1925;SDS011;964;42.606;23.588;2022-07-06T13:26:31;11.43;;;10.27;;
1925;SDS011;964;42.606;23.588;2022-07-06T13:28:58;11.57;;;9.17;;
1925;SDS011;964;42.606;23.588;2022-07-06T13:31:25;10.10;;;9.10;;
1925;SDS011;964;42.606;23.588;2022-07-06T13:33:52;13.67;;;9.10;;
1925;SDS011;964;42.606;23.588;2022-07-06T13:36:18;10.50;;;9.40;;
1925;SDS011;964;42.606;23.588;2022-07-06T13:38:47;9.97;;;9.00;;
1925;SDS011;964;42.606;23.588;2022-07-06T13:41:13;9.23;;;8.33;;
1925;SDS011;964;42.606;23.588;2022-07-06T13:43:40;10.53;;;9.43;;
1925;SDS011;964;42.606;23.588;2022-07-06T13:46:07;9.43;;;8.53;;
1925;SDS011;964;42.606;23.588;2022-07-06T13:48:35;11.13;;;7.60;;
1925;SDS011;964;42.606;23.588;2022-07-06T13:51:02;8.93;;;8.10;;
1925;SDS011;964;42.606;23.588;2022-07-06T13:53:30;7.93;;;7.13;;
1925;SDS011;964;42.606;23.588;2022-07-06T13:55:59;8.10;;;7.40;;
1925;SDS011;964;42.606;23.588;2022-07-06T13:58:26;8.67;;;7.87;;
1925;SDS011;964;42.606;23.588;2022-07-06T14:00:53;8.60;;;7.80;;
1925;SDS011;964;42.606;23.588;2022-07-06T14:03:20;8.90;;;8.00;;
1925;SDS011;964;42.606;23.588;2022-07-06T14:05:52;9.87;;;7.40;;
1925;SDS011;964;42.606;23.588;2022-07-06T14:08:19;7.57;;;6.87;;
1925;SDS011;964;42.606;23.588;2022-07-06T14:10:46;8.17;;;7.00;;
1925;SDS011;964;42.606;23.588;2022-07-06T14:13:14;7.50;;;6.70;;
1925;SDS011;964;42.606;23.588;2022-07-06T14:15:41;7.20;;;6.10;;
1925;SDS011;964;42.606;23.588;2022-07-06T14:18:08;5.53;;;5.03;;
1925;SDS011;964;42.606;23.588;2022-07-06T14:20:35;5.77;;;5.27;;
1925;SDS011;964;42.606;23.588;2022-07-06T14:23:02;5.87;;;5.37;;
1925;SDS011;964;42.606;23.588;2022-07-06T14:25:29;6.97;;;5.83;;
1925;SDS011;964;42.606;23.588;2022-07-06T14:27:56;5.83;;;5.40;;
1925;SDS011;964;42.606;23.588;2022-07-06T14:30:24;4.90;;;4.50;;
1925;SDS011;964;42.606;23.588;2022-07-06T14:32:51;5.17;;;4.73;;
1925;SDS011;964;42.606;23.588;2022-07-06T14:35:17;4.10;;;3.80;;
1925;SDS011;964;42.606;23.588;2022-07-06T14:37:44;5.17;;;4.67;;
1925;SDS011;964;42.606;23.588;2022-07-06T14:40:11;11.13;;;5.20;;
1925;SDS011;964;42.606;23.588;2022-07-06T14:42:38;4.80;;;4.03;;
1925;SDS011;964;42.606;23.588;2022-07-06T14:45:05;4.60;;;4.30;;
1925;SDS011;964;42.606;23.588;2022-07-06T14:47:34;4.20;;;3.80;;
1925;SDS011;964;42.606;23.588;2022-07-06T14:50:01;5.10;;;4.00;;
1925;SDS011;964;42.606;23.588;2022-07-06T14:52:28;6.57;;;6.03;;
1925;SDS011;964;42.606;23.588;2022-07-06T14:54:55;4.07;;;3.77;;
1925;SDS011;964;42.606;23.588;2022-07-06T14:57:24;4.97;;;3.27;;
1925;SDS011;964;42.606;23.588;2022-07-06T14:59:51;6.17;;;3.33;;
1925;SDS011;964;42.606;23.588;2022-07-06T15:02:18;4.40;;;3.70;;
1925;SDS011;964;42.606;23.588;2022-07-06T15:04:46;5.13;;;4.03;;
1925;SDS011;964;42.606;23.588;2022-07-06T15:07:13;3.53;;;3.23;;
1925;SDS011;964;42.606;23.588;2022-07-06T15:09:39;3.73;;;3.43;;
1925;SDS011;964;42.606;23.588;2022-07-06T15:12:06;4.20;;;3.90;;